Главная страница
METAR-TAF:

METAR-TAF

Аэропорты :

Лусака, Замбия

Международный аэропорт имени Кеннета Каунды

широта: 15-19-51S, долгота: 028-27-09E, высота над уровнем моря: 1152 м

Текущие метеонаблюдения

Эта сводка был подготовлена 18 часа и 40 минут назад, в 13:00 UTC
Ветер 4 Узел переменных направлений
Температура 31°C
Влажность 31%
Давление 1014 hPa
Видимость 10 км и более
Отдельные облака на высоте 4200 фута

METAR: FLKK 231300Z VRB04KT 9999 SCT042 31/12 Q1014 NOSIG

Время: 09:40 (07:40 UTC)


TAF: отсутствует

Метеонаблюдения и прогнозы для более 4000 аэропортов (сводки METAR и TAF).

Имеющиеся станции представлены на карте желтыми и красными точками.

Чтобы увидеть название станции, наведите на нее мышь.

Затем щелкните, чтобы увидеть метеонаблюдения и метеопрогнозы.

Управление картой: чтобы увеличить масштаб, щелкните зеленые кнопки с черным крестиком; чтобы уменьшить масштаб, щелкните зеленую кнопку с тире; для просмотра соседних карт щелкайте зеленые стрелки.


METAR-TAF: